Aérodrome :
LOGIN :

S'inscrire | Disclaimer

   EN    FR    IT 

 










Légende :    VFR   VFR Marginal   IFR   IFR Intensif   IFR Très Intensif
Visi : 
Plafond : 
>= 8 km
>= 3000ft
5 à 8 km
1000 à 3000 ft
1500m à 5 km
500 à 1000 ft
800 à 1500m
200 à 500 ft
< 800m
< 200 ft
Symboles :   Orages  Brouillard  Fortes neiges  Fortes précipitations  Vent > 20 kt
SIGMETs :   Divers  Orages  Givrage  Turbulence  Onde Orograph.  Cendres Volcan.






- Altitude de l'aérodrome : 364 ft
- Code IATA : FRA


EDDF - Frankfurt Int.

DERNIER METAR :
  • 271620Z AUTO 18006KT 150V210 CAVOK 21/12 Q1015 TEMPO SHRA SCT040CB

METARs EXPIRÉS :
  • 271550Z AUTO 17007KT 140V210 CAVOK 20/11 Q1015 TEMPO SHRA SCT040CB
  • 271520Z AUTO 18007KT CAVOK 20/12 Q1015 NOSIG
  • 271450Z AUTO 22005KT 170V300 CAVOK 21/12 Q1015 NOSIG
  • 271420Z AUTO 20006KT 160V220 9999 -SHRA FEW041 FEW///CB 20/13 Q1016 RESHRA NOSIG
  • 271350Z AUTO 20010KT 9999 -SHRA FEW///CB 21/11 Q1016 TEMPO SHRA
  • 271320Z AUTO 22010KT 9999 FEW047 22/11 Q1016 TEMPO 4000 SHRA SCT040CB
  • 271250Z AUTO 20008KT 160V250 CAVOK 23/11 Q1016 TEMPO SHRA SCT040CB
  • 271220Z AUTO 18006KT 130V220 CAVOK 21/11 Q1016 TEMPO SHRA SCT040CB
  • 271150Z AUTO 17007KT CAVOK 21/11 Q1017 NOSIG

TAF TAF EDDF
Valide du 27 à 12h jusqu'au 28 à 18h UTC


271100Z 2712/2818 21006KT 9999 SCT045
PROB40
TEMPO 2712/2722 SHRA BKN035CB
PROB30
TEMPO 2714/2721 3000 TSRA
BECMG 2718/2721 27007KT



MET'MAP, la Météo Aéronautique d'un coup d'oeil ! - Copyright ORBIFLY Décembre 2007 - Disclaimer

ORBIFLY MET'MAP TEAM :

Programmation & Développement : Alexandra Zaïnal
Sur une idée originale de : Baudouin d'Aumeries
Soutien technique & logistique : Manuel Goepfert
Assistance : Marc-Olivier Méhu




SOURCES & CREDITS :

   NOAA